Terminal Aerodrome Forecast
Issued by NWS Portland, OR

Home | Current Version | Previous Version | Text Only | Print | Product List | Glossary On
Versions: 1 2 3 4 5 6 7 8 9 10 11 12 13 14 15 16 17 18 19 20 21 22 23 24 25 26 27 28 29 30 31 32 33 34 35
000
FTUS46 KPQR 270141 AAA
TAFAST
TAF AMD
KAST 270141Z 2702/2724 VRB04KT 2SM -RA BR OVC006
      TEMPO 2702/2703 3SM -RA BR BKN006 OVC012
     FM270300 VRB03KT P6SM SCT006 OVC015
     FM270600 07003KT 4SM BR SCT009 OVC015
     FM271100 20006KT P6SM OVC015=

USA.gov is the U.S. government's official web portal to all federal, state and local government web resources and services.